createdAt,value
2018-09-03T00:01:02.507Z,18.25
2018-09-03T00:03:30.579Z,18.55
2018-09-03T00:05:59.143Z,17.50
2018-09-03T00:08:27.383Z,18.23
2018-09-03T00:10:55.540Z,18.48
2018-09-03T00:13:23.644Z,18.60
2018-09-03T00:15:51.895Z,18.30
2018-09-03T00:18:20.011Z,17.63
2018-09-03T00:20:48.095Z,18.30
2018-09-03T00:23:16.231Z,18.55
2018-09-03T00:25:44.400Z,18.05
2018-09-03T00:28:14.907Z,16.80
2018-09-03T00:30:43.136Z,18.05
2018-09-03T00:33:16.767Z,18.50
2018-09-03T00:35:50.376Z,18.57
2018-09-03T00:38:23.773Z,19.95
2018-09-03T00:40:57.234Z,18.85
2018-09-03T00:43:30.696Z,17.92
2018-09-03T00:46:04.291Z,18.10
2018-09-03T00:48:32.603Z,18.25
2018-09-03T00:51:00.871Z,19.53
2018-09-03T00:53:28.928Z,19.15
2018-09-03T00:55:57.026Z,18.37
2018-09-03T00:58:25.176Z,19.25
2018-09-03T01:00:53.275Z,19.50
2018-09-03T01:03:21.451Z,18.92
2018-09-03T01:05:49.464Z,18.37
2018-09-03T01:08:17.594Z,18.60
2018-09-03T01:10:45.670Z,20.25
2018-09-03T01:13:13.822Z,19.65
2018-09-03T01:15:41.936Z,19.30
2018-09-03T01:18:10.167Z,20.90
2018-09-03T01:20:38.362Z,21.85
2018-09-03T01:23:06.566Z,21.82
2018-09-03T01:25:34.634Z,22.20
2018-09-03T01:28:02.699Z,20.37
2018-09-03T01:30:30.747Z,20.32
2018-09-03T01:32:58.954Z,21.55
2018-09-03T01:35:27.121Z,22.13
2018-09-03T01:37:55.294Z,21.55
2018-09-03T01:40:23.454Z,22.13
2018-09-03T01:42:51.486Z,20.52
2018-09-03T01:45:19.679Z,21.37
2018-09-03T01:47:48.764Z,21.57
2018-09-03T01:50:16.762Z,22.13
2018-09-03T01:52:44.956Z,21.60
2018-09-03T01:55:13.024Z,21.30
2018-09-03T01:57:41.176Z,20.23
2018-09-03T02:00:09.477Z,20.80
2018-09-03T02:02:37.683Z,20.80
2018-09-03T02:05:06.163Z,21.00
2018-09-03T02:07:34.203Z,22.48
2018-09-03T02:10:02.395Z,21.33
2018-09-03T02:12:30.435Z,22.20
2018-09-03T02:14:58.540Z,21.00
2018-09-03T02:17:26.774Z,22.58
2018-09-03T02:19:54.919Z,22.33
2018-09-03T02:22:22.926Z,21.93
2018-09-03T02:24:51.048Z,19.87
2018-09-03T02:27:19.079Z,22.25
2018-09-03T02:29:47.158Z,22.02
2018-09-03T02:32:15.250Z,20.72
2018-09-03T02:34:43.351Z,20.72
2018-09-03T02:37:11.503Z,20.37
2018-09-03T02:39:39.584Z,20.25
2018-09-03T02:42:07.640Z,20.90
2018-09-03T02:44:35.819Z,20.43
2018-09-03T02:47:14.513Z,20.20
2018-09-03T02:49:42.595Z,19.73
2018-09-03T02:52:10.704Z,19.55
2018-09-03T02:54:38.759Z,20.00
2018-09-03T02:57:06.834Z,19.45
2018-09-03T02:59:35.068Z,19.67
2018-09-03T03:02:03.195Z,20.10
2018-09-03T03:04:31.334Z,20.60
2018-09-03T03:06:59.541Z,21.00
2018-09-03T03:09:27.595Z,21.53
2018-09-03T03:11:55.847Z,22.17
2018-09-03T03:14:23.861Z,22.80
2018-09-03T03:16:52.324Z,21.40
2018-09-03T03:19:20.504Z,20.50
2018-09-03T03:21:48.819Z,19.73
2018-09-03T03:24:16.862Z,19.42
2018-09-03T03:26:44.943Z,20.17
2018-09-03T03:29:13.223Z,21.15
2018-09-03T03:31:41.291Z,20.30
2018-09-03T03:34:09.584Z,20.37
2018-09-03T03:36:37.927Z,20.12
2018-09-03T03:39:07.220Z,21.25
2018-09-03T03:41:35.615Z,20.48
2018-09-03T03:44:03.918Z,20.43
2018-09-03T03:46:32.224Z,21.53
2018-09-03T03:49:00.386Z,20.10
2018-09-03T03:51:28.411Z,21.40
2018-09-03T03:53:56.408Z,21.00
2018-09-03T03:56:24.571Z,20.65
2018-09-03T03:58:52.863Z,21.00
2018-09-03T04:01:20.962Z,20.10
2018-09-03T04:03:49.119Z,21.52
2018-09-03T04:06:17.259Z,21.62
2018-09-03T04:08:45.252Z,20.95
2018-09-03T04:11:13.502Z,21.17
2018-09-03T04:13:41.707Z,22.20
2018-09-03T04:16:09.882Z,22.40
2018-09-03T04:18:37.920Z,22.60
2018-09-03T04:21:06.035Z,21.23
2018-09-03T04:23:34.181Z,23.18
2018-09-03T04:26:02.486Z,22.55
2018-09-03T04:28:30.531Z,24.57
2018-09-03T04:30:58.644Z,26.25
2018-09-03T04:33:26.917Z,28.07
2018-09-03T04:35:55.097Z,29.27
2018-09-03T04:38:23.145Z,30.17
2018-09-03T04:40:51.447Z,32.23
2018-09-03T04:43:19.506Z,32.75
2018-09-03T04:45:47.586Z,33.38
2018-09-03T04:48:15.636Z,33.80
2018-09-03T04:50:43.875Z,34.73
2018-09-03T04:53:11.882Z,42.93
2018-09-03T04:55:40.104Z,45.85
2018-09-03T04:58:08.127Z,51.65
2018-09-03T05:00:36.246Z,53.78
2018-09-03T05:03:04.503Z,37.30
2018-09-03T05:05:32.775Z,36.93
2018-09-03T05:08:00.866Z,35.38
2018-09-03T05:10:29.003Z,33.98
2018-09-03T05:12:57.364Z,35.65
2018-09-03T05:15:25.500Z,34.90
2018-09-03T05:17:53.640Z,31.12
2018-09-03T05:20:21.895Z,32.25
2018-09-03T05:22:50.116Z,32.05
2018-09-03T05:25:18.169Z,29.20
2018-09-03T05:27:46.288Z,28.65
2018-09-03T05:30:14.518Z,29.55
2018-09-03T05:32:42.628Z,27.45
2018-09-03T05:35:10.669Z,28.45
2018-09-03T05:37:38.871Z,26.65
2018-09-03T05:40:07.320Z,27.10
2018-09-03T05:42:35.411Z,28.73
2018-09-03T05:45:03.913Z,31.03
2018-09-03T05:47:32.066Z,33.20
2018-09-03T05:50:00.179Z,32.10
2018-09-03T05:52:28.215Z,30.37
2018-09-03T05:54:56.251Z,29.92
2018-09-03T05:57:24.360Z,28.42
2018-09-03T05:59:52.794Z,26.70
2018-09-03T06:02:20.931Z,28.83
2018-09-03T06:04:49.130Z,26.90
2018-09-03T06:07:17.186Z,27.27
2018-09-03T06:09:45.446Z,27.70
2018-09-03T06:12:13.552Z,27.45
2018-09-03T06:14:41.695Z,27.30
2018-09-03T06:17:09.775Z,26.37
2018-09-03T06:19:37.833Z,27.20
2018-09-03T06:22:06.284Z,25.73
2018-09-03T06:24:34.781Z,25.75
2018-09-03T06:27:02.987Z,24.70
2018-09-03T06:29:31.135Z,26.48
2018-09-03T06:31:59.460Z,25.30
2018-09-03T06:34:27.539Z,24.75
2018-09-03T06:36:55.720Z,24.77
2018-09-03T06:39:23.764Z,25.23
2018-09-03T06:41:51.949Z,24.10
2018-09-03T06:44:20.131Z,25.10
2018-09-03T06:46:48.187Z,23.57
2018-09-03T06:49:16.260Z,25.17
2018-09-03T06:51:44.418Z,23.32
2018-09-03T06:54:12.782Z,24.13
2018-09-03T06:56:40.959Z,23.73
2018-09-03T06:59:09.172Z,22.80
2018-09-03T07:01:37.646Z,23.00
2018-09-03T07:04:05.832Z,23.52
2018-09-03T07:06:34.066Z,21.80
2018-09-03T07:09:02.266Z,22.80
2018-09-03T07:11:30.331Z,23.45
2018-09-03T07:13:58.419Z,23.25
2018-09-03T07:16:26.483Z,21.87
2018-09-03T07:18:54.600Z,23.18
2018-09-03T07:21:22.714Z,22.33
2018-09-03T07:23:50.839Z,22.45
2018-09-03T07:26:19.103Z,21.75
2018-09-03T07:28:47.130Z,22.85
2018-09-03T07:31:15.236Z,22.55
2018-09-03T07:33:43.400Z,21.90
2018-09-03T07:36:11.496Z,21.30
2018-09-03T07:38:39.536Z,21.37
2018-09-03T07:41:07.750Z,20.82
2018-09-03T07:43:35.790Z,21.40
2018-09-03T07:46:03.871Z,20.70
2018-09-03T07:48:31.946Z,20.37
2018-09-03T07:51:00.179Z,18.87
2018-09-03T07:53:28.180Z,18.75
2018-09-03T07:55:56.280Z,19.10
2018-09-03T07:58:24.324Z,19.07
2018-09-03T08:00:52.700Z,17.77
2018-09-03T08:03:20.975Z,17.40
2018-09-03T08:05:49.226Z,16.82
2018-09-03T08:08:17.447Z,18.50
2018-09-03T08:10:45.503Z,18.40
2018-09-03T08:13:19.359Z,17.85
2018-09-03T08:15:47.403Z,19.35
2018-09-03T08:18:15.768Z,18.50
2018-09-03T08:20:43.944Z,17.70
2018-09-03T08:23:12.059Z,17.17
2018-09-03T08:25:40.645Z,18.65
2018-09-03T08:28:08.837Z,17.25
2018-09-03T08:30:36.866Z,17.12
2018-09-03T08:33:04.942Z,16.07
2018-09-03T08:35:33.053Z,16.95
2018-09-03T08:38:01.119Z,16.50
2018-09-03T08:40:29.177Z,17.48
2018-09-03T08:42:57.238Z,16.95
2018-09-03T08:45:25.323Z,16.13
2018-09-03T08:47:53.288Z,16.23
2018-09-03T08:50:21.611Z,14.60
2018-09-03T08:52:49.710Z,15.10
2018-09-03T08:55:17.900Z,14.85
2018-09-03T08:57:46.091Z,13.75
2018-09-03T09:00:14.277Z,14.65
2018-09-03T09:02:42.419Z,14.43
2018-09-03T09:05:10.625Z,12.53
2018-09-03T09:07:38.675Z,11.20
2018-09-03T09:10:06.888Z,13.10
2018-09-03T09:12:34.924Z,12.65
2018-09-03T09:15:03.224Z,12.47
2018-09-03T09:17:31.429Z,14.07
2018-09-03T09:19:59.475Z,12.25
2018-09-03T09:22:27.510Z,12.80
2018-09-03T09:24:55.794Z,11.10
2018-09-03T09:27:23.863Z,13.22
2018-09-03T09:29:52.259Z,14.13
2018-09-03T09:32:20.350Z,11.65
2018-09-03T09:34:48.505Z,13.30
2018-09-03T09:37:16.845Z,13.97
2018-09-03T09:39:45.261Z,13.80
2018-09-03T09:42:13.579Z,14.18
2018-09-03T09:44:41.619Z,12.05
2018-09-03T09:47:09.754Z,12.20
2018-09-03T09:49:37.851Z,12.80
2018-09-03T09:52:05.961Z,12.60
2018-09-03T09:54:34.112Z,12.33
2018-09-03T09:57:02.202Z,11.65
2018-09-03T09:59:30.360Z,12.37
2018-09-03T10:01:58.454Z,12.65
2018-09-03T10:04:26.667Z,12.25
2018-09-03T10:06:54.803Z,12.43
2018-09-03T10:09:22.955Z,11.50
2018-09-03T10:11:51.147Z,11.33
2018-09-03T10:14:19.388Z,11.53
2018-09-03T10:16:47.822Z,11.80
2018-09-03T10:19:15.989Z,12.20
2018-09-03T10:21:44.152Z,11.60
2018-09-03T10:24:12.227Z,11.70
2018-09-03T10:26:40.348Z,11.20
2018-09-03T10:29:08.424Z,11.40
2018-09-03T10:31:36.675Z,11.30
2018-09-03T10:34:05.151Z,12.60
2018-09-03T10:36:33.394Z,12.23
2018-09-03T10:39:01.702Z,10.60
2018-09-03T10:41:29.759Z,11.80
2018-09-03T10:43:57.835Z,11.00
2018-09-03T10:46:25.999Z,10.95
2018-09-03T10:48:54.090Z,11.08
2018-09-03T10:51:22.344Z,11.12
2018-09-03T10:53:50.435Z,9.90
2018-09-03T10:56:18.611Z,11.08
2018-09-03T10:58:46.715Z,9.63
2018-09-03T11:01:14.763Z,10.35
2018-09-03T11:03:42.911Z,10.93
2018-09-03T11:06:10.944Z,10.35
2018-09-03T11:08:38.976Z,11.07
2018-09-03T11:11:07.080Z,10.15
2018-09-03T11:13:35.117Z,9.83
2018-09-03T11:16:03.302Z,9.85
2018-09-03T11:18:32.259Z,9.20
2018-09-03T11:21:00.315Z,8.78
2018-09-03T11:23:28.368Z,8.53
2018-09-03T11:25:56.430Z,8.10
2018-09-03T11:28:24.496Z,8.50
2018-09-03T11:30:52.650Z,7.50
2018-09-03T11:33:20.832Z,8.13
2018-09-03T11:35:48.925Z,7.45
2018-09-03T11:38:17.091Z,7.97
2018-09-03T11:40:45.183Z,7.17
2018-09-03T11:43:13.223Z,7.60
2018-09-03T11:45:41.279Z,7.50
2018-09-03T11:48:09.388Z,7.85
2018-09-03T11:50:37.439Z,8.48
2018-09-03T11:53:05.644Z,7.85
2018-09-03T11:55:33.779Z,7.50
2018-09-03T11:58:01.975Z,8.98
2018-09-03T12:00:30.951Z,8.50
2018-09-03T12:02:59.584Z,7.47
2018-09-03T12:05:28.460Z,7.53
2018-09-03T12:07:56.649Z,7.20
2018-09-03T12:10:24.853Z,6.87
2018-09-03T12:12:52.982Z,6.65
2018-09-03T12:15:39.104Z,6.30
2018-09-03T12:18:07.278Z,6.40
2018-09-03T12:20:35.316Z,6.62
2018-09-03T12:23:03.410Z,6.50
2018-09-03T12:25:31.574Z,7.42
2018-09-03T12:27:59.661Z,7.53
2018-09-03T12:30:27.844Z,8.00
2018-09-03T12:32:55.891Z,8.07
2018-09-03T12:35:24.084Z,7.45
2018-09-03T12:37:52.130Z,7.40
2018-09-03T12:40:20.211Z,7.22
2018-09-03T12:42:48.534Z,7.50
2018-09-03T12:45:16.955Z,7.85
2018-09-03T12:47:45.023Z,7.22
2018-09-03T12:50:13.117Z,7.07
2018-09-03T12:52:41.291Z,7.00
2018-09-03T12:55:09.403Z,7.60
2018-09-03T12:57:37.619Z,7.33
2018-09-03T13:00:05.832Z,7.25
2018-09-03T13:02:39.419Z,7.15
2018-09-03T13:05:02.109Z,7.53
2018-09-03T13:07:30.364Z,7.97
2018-09-03T13:09:58.552Z,7.40
2018-09-03T13:12:26.605Z,7.95
2018-09-03T13:14:54.757Z,6.60
2018-09-03T13:17:22.842Z,6.72
2018-09-03T13:19:51.099Z,6.70
2018-09-03T13:22:19.292Z,6.70
2018-09-03T13:24:47.420Z,6.50
2018-09-03T13:27:15.519Z,7.12
2018-09-03T13:29:43.704Z,7.35
2018-09-03T13:32:11.919Z,6.50
2018-09-03T13:34:39.962Z,7.12
2018-09-03T13:37:08.054Z,7.53
2018-09-03T13:39:36.108Z,6.53
2018-09-03T13:42:04.211Z,6.87
2018-09-03T13:44:32.254Z,6.05
2018-09-03T13:47:00.435Z,6.60
2018-09-03T13:49:28.511Z,6.80
2018-09-03T13:51:56.691Z,6.10
2018-09-03T13:54:24.760Z,6.15
2018-09-03T13:56:52.935Z,5.90
2018-09-03T13:59:21.202Z,5.85
2018-09-03T14:01:49.267Z,5.60
2018-09-03T14:04:17.470Z,5.75
2018-09-03T14:06:45.659Z,5.75
2018-09-03T14:09:13.825Z,5.60
2018-09-03T14:11:42.147Z,5.30
2018-09-03T14:14:10.277Z,5.65
2018-09-03T14:16:38.326Z,4.72
2018-09-03T14:19:06.515Z,5.00
2018-09-03T14:21:34.789Z,5.40
2018-09-03T14:24:02.871Z,5.50
2018-09-03T14:26:30.923Z,5.28
2018-09-03T14:28:59.117Z,5.28
2018-09-03T14:31:27.166Z,6.00
2018-09-03T14:33:55.293Z,6.00
2018-09-03T14:36:23.323Z,5.25
2018-09-03T14:38:51.607Z,5.33
2018-09-03T14:41:19.879Z,4.95
2018-09-03T14:43:47.986Z,4.87
2018-09-03T14:46:16.011Z,5.05
2018-09-03T14:48:44.338Z,5.30
2018-09-03T14:51:12.404Z,5.60
2018-09-03T14:53:40.796Z,5.50
2018-09-03T14:56:09.074Z,5.50
2018-09-03T14:58:37.416Z,5.10
2018-09-03T15:01:05.567Z,4.90
2018-09-03T15:03:33.971Z,4.97
2018-09-03T15:06:02.055Z,5.40
2018-09-03T15:08:30.290Z,5.83
2018-09-03T15:10:58.326Z,5.85
2018-09-03T15:13:26.578Z,5.78
2018-09-03T15:15:54.794Z,5.30
2018-09-03T15:18:24.167Z,6.40
2018-09-03T15:20:53.997Z,5.80
2018-09-03T15:23:22.123Z,7.03
2018-09-03T15:25:50.335Z,8.40
2018-09-03T15:28:18.407Z,7.90
2018-09-03T15:30:46.699Z,9.20
2018-09-03T15:33:17.889Z,7.50
2018-09-03T15:35:49.050Z,7.50
2018-09-03T15:38:23.584Z,7.50
2018-09-03T15:40:57.226Z,7.28
2018-09-03T15:43:25.621Z,6.62
2018-09-03T15:46:00.935Z,6.60
2018-09-03T15:48:29.666Z,6.60
2018-09-03T15:50:58.404Z,6.12
2018-09-03T15:53:33.134Z,6.30
2018-09-03T15:56:02.171Z,6.20
2018-09-03T15:58:31.343Z,6.17
2018-09-03T16:00:59.950Z,5.90
2018-09-03T16:03:28.206Z,5.05
2018-09-03T16:05:56.491Z,4.90
2018-09-03T16:08:24.521Z,5.60
2018-09-03T16:10:55.212Z,5.03
2018-09-03T16:13:23.139Z,5.65
2018-09-03T16:15:51.219Z,6.30
2018-09-03T16:18:19.463Z,5.90
2018-09-03T16:20:47.589Z,5.80
2018-09-03T16:23:15.616Z,5.70
2018-09-03T16:25:43.706Z,6.20
2018-09-03T16:28:11.783Z,7.43
2018-09-03T16:30:40.079Z,8.10
2018-09-03T16:33:08.347Z,6.80
2018-09-03T16:35:36.459Z,7.20
2018-09-03T16:38:04.897Z,7.10
2018-09-03T16:40:33.236Z,7.45
2018-09-03T16:43:01.339Z,7.62
2018-09-03T16:45:29.443Z,6.83
2018-09-03T16:47:57.482Z,7.05
2018-09-03T16:50:25.603Z,7.50
2018-09-03T16:52:53.622Z,7.03
2018-09-03T16:55:21.865Z,7.47
2018-09-03T16:57:49.803Z,8.13
2018-09-03T17:00:17.844Z,7.70
2018-09-03T17:02:45.943Z,8.00
2018-09-03T17:05:14.383Z,7.58
2018-09-03T17:07:42.680Z,7.47
2018-09-03T17:10:10.638Z,7.83
2018-09-03T17:12:38.830Z,7.40
2018-09-03T17:15:11.397Z,9.08
2018-09-03T17:17:39.497Z,8.20
2018-09-03T17:20:07.784Z,7.72
2018-09-03T17:22:35.996Z,8.13
2018-09-03T17:25:09.104Z,8.23
2018-09-03T17:27:44.735Z,7.70
2018-09-03T17:30:13.680Z,8.15
2018-09-03T17:32:44.734Z,8.65
2018-09-03T17:35:13.845Z,8.70
2018-09-03T17:37:41.907Z,9.05
2018-09-03T17:40:10.182Z,7.95
2018-09-03T17:42:38.439Z,8.60
2018-09-03T17:45:07.604Z,8.73
2018-09-03T17:47:36.057Z,8.45
2018-09-03T17:50:04.463Z,8.15
2018-09-03T17:52:32.525Z,8.20
2018-09-03T17:55:00.672Z,8.90
2018-09-03T17:57:28.830Z,8.20
2018-09-03T17:59:56.926Z,8.80
2018-09-03T18:02:24.935Z,10.10
2018-09-03T18:04:53.181Z,10.00
2018-09-03T18:07:21.202Z,9.78
2018-09-03T18:09:49.436Z,11.15
2018-09-03T18:12:17.690Z,11.30
2018-09-03T18:14:45.866Z,11.08
2018-09-03T18:17:14.175Z,11.60
2018-09-03T18:19:42.313Z,12.78
2018-09-03T18:22:10.414Z,13.28
2018-09-03T18:24:38.562Z,13.15
2018-09-03T18:27:06.943Z,13.58
2018-09-03T18:29:35.094Z,14.70
2018-09-03T18:32:03.578Z,14.73
2018-09-03T18:34:31.653Z,15.50
2018-09-03T18:36:59.974Z,16.73
2018-09-03T18:39:28.144Z,16.85
2018-09-03T18:41:56.462Z,15.68
2018-09-03T18:44:24.572Z,16.70
2018-09-03T18:46:53.499Z,16.37
2018-09-03T18:49:21.528Z,16.73
2018-09-03T18:51:49.616Z,16.90
2018-09-03T18:54:17.671Z,17.42
2018-09-03T18:56:45.876Z,17.80
2018-09-03T18:59:14.042Z,18.05
2018-09-03T19:01:42.225Z,17.70
2018-09-03T19:04:10.302Z,17.35
2018-09-03T19:06:38.370Z,17.50
2018-09-03T19:09:07.775Z,18.67
2018-09-03T19:11:35.873Z,19.00
2018-09-03T19:14:03.914Z,18.48
2018-09-03T19:16:31.964Z,18.98
2018-09-03T19:19:00.506Z,20.57
2018-09-03T19:21:28.457Z,19.42
2018-09-03T19:23:56.544Z,19.87
2018-09-03T19:26:24.572Z,21.27
2018-09-03T19:28:52.829Z,19.15
2018-09-03T19:31:20.819Z,19.75
2018-09-03T19:33:48.995Z,20.50
2018-09-03T19:36:17.270Z,20.68
2018-09-03T19:38:45.354Z,20.82
2018-09-03T19:41:13.547Z,20.70
2018-09-03T19:43:41.600Z,21.17
2018-09-03T19:46:09.705Z,21.70
2018-09-03T19:48:37.877Z,20.50
2018-09-03T19:51:06.157Z,20.15
2018-09-03T19:53:34.323Z,20.32
2018-09-03T19:56:02.509Z,20.70
2018-09-03T19:58:30.465Z,21.37
2018-09-03T20:00:58.510Z,21.52
2018-09-03T20:03:26.606Z,21.57
2018-09-03T20:05:54.772Z,21.95
2018-09-03T20:08:22.974Z,21.80
2018-09-03T20:10:51.153Z,20.40
2018-09-03T20:13:19.206Z,20.90
2018-09-03T20:15:47.283Z,21.85
2018-09-03T20:18:15.470Z,20.77
2018-09-03T20:20:43.606Z,20.50
2018-09-03T20:23:11.754Z,20.92
2018-09-03T20:25:39.855Z,21.07
2018-09-03T20:28:07.975Z,20.08
2018-09-03T20:30:36.068Z,19.40
2018-09-03T20:33:04.098Z,20.65
2018-09-03T20:35:32.042Z,19.45
2018-09-03T20:38:00.371Z,19.17
2018-09-03T20:40:28.506Z,17.62
2018-09-03T20:42:56.727Z,17.87
2018-09-03T20:45:25.010Z,17.80
2018-09-03T20:47:53.173Z,18.57
2018-09-03T20:50:21.219Z,18.70
2018-09-03T20:52:49.416Z,18.65
2018-09-03T20:55:17.572Z,18.48
2018-09-03T20:57:45.729Z,20.35
2018-09-03T21:00:13.732Z,19.97
2018-09-03T21:02:41.817Z,20.20
2018-09-03T21:05:09.898Z,20.62
2018-09-03T21:07:37.919Z,20.77
2018-09-03T21:10:06.859Z,22.10
2018-09-03T21:12:35.116Z,22.27
2018-09-03T21:15:03.295Z,23.77
2018-09-03T21:17:31.482Z,23.18
2018-09-03T21:19:59.647Z,22.85
2018-09-03T21:22:27.803Z,22.60
2018-09-03T21:24:55.918Z,22.77
2018-09-03T21:27:23.956Z,24.32
2018-09-03T21:29:52.030Z,24.15
2018-09-03T21:32:20.170Z,22.52
2018-09-03T21:34:48.291Z,23.15
2018-09-03T21:37:16.463Z,22.50
2018-09-03T21:39:44.555Z,23.07
2018-09-03T21:42:12.576Z,23.20
2018-09-03T21:44:40.759Z,23.45
2018-09-03T21:47:08.930Z,23.70
2018-09-03T21:49:37.212Z,24.43
2018-09-03T21:52:05.531Z,24.87
2018-09-03T21:54:33.656Z,24.00
2018-09-03T21:57:01.659Z,24.77
2018-09-03T21:59:29.739Z,25.75
2018-09-03T22:01:57.818Z,25.48
2018-09-03T22:04:25.890Z,25.65
2018-09-03T22:06:53.934Z,26.20
2018-09-03T22:09:22.048Z,27.07
2018-09-03T22:11:50.167Z,27.62
2018-09-03T22:14:18.179Z,26.80
2018-09-03T22:16:46.221Z,28.60
2018-09-03T22:19:15.175Z,28.87
2018-09-03T22:21:43.374Z,28.17
2018-09-03T22:24:11.458Z,28.92
2018-09-03T22:26:39.863Z,28.62
2018-09-03T22:29:08.073Z,30.37
2018-09-03T22:31:36.233Z,30.50
2018-09-03T22:34:04.378Z,30.00
2018-09-03T22:36:32.696Z,31.05
2018-09-03T22:39:00.894Z,30.90
2018-09-03T22:41:28.895Z,30.92
2018-09-03T22:43:57.115Z,30.70
2018-09-03T22:46:25.170Z,30.52
2018-09-03T22:48:53.240Z,31.45
2018-09-03T22:51:21.298Z,32.40
2018-09-03T22:53:49.482Z,31.37
2018-09-03T22:56:17.589Z,32.73
2018-09-03T22:58:45.715Z,30.75
2018-09-03T23:01:13.874Z,32.10
2018-09-03T23:03:42.114Z,32.17
2018-09-03T23:06:10.167Z,33.15
2018-09-03T23:08:38.343Z,32.00
2018-09-03T23:11:06.561Z,32.97
2018-09-03T23:13:34.780Z,33.80
2018-09-03T23:16:02.883Z,33.30
2018-09-03T23:18:30.967Z,34.63
2018-09-03T23:20:59.118Z,34.00
2018-09-03T23:23:27.338Z,32.55
2018-09-03T23:25:55.443Z,33.45
2018-09-03T23:28:23.634Z,32.05
2018-09-03T23:30:51.687Z,32.17
2018-09-03T23:33:19.789Z,32.15
2018-09-03T23:35:48.028Z,31.02
2018-09-03T23:38:16.240Z,31.65
2018-09-03T23:40:44.463Z,32.30
2018-09-03T23:43:12.476Z,33.05
2018-09-03T23:45:40.576Z,32.70
2018-09-03T23:48:08.802Z,33.10
2018-09-03T23:50:37.071Z,30.97
2018-09-03T23:53:05.231Z,32.63
2018-09-03T23:55:33.235Z,32.55
2018-09-03T23:58:01.451Z,33.63
